sensor_id;sensor_type;location;lat;lon;timestamp;P1;durP1;ratioP1;P2;durP2;ratioP2
71771;SDS011;59606;52.138;5.424;2024-01-06T00:00:32;8.98;;;4.25;;
71771;SDS011;59606;52.138;5.424;2024-01-06T00:02:59;9.60;;;3.75;;
71771;SDS011;59606;52.138;5.424;2024-01-06T00:05:26;10.83;;;4.50;;
71771;SDS011;59606;52.138;5.424;2024-01-06T00:07:52;10.98;;;5.10;;
71771;SDS011;59606;52.138;5.424;2024-01-06T00:10:19;10.27;;;4.47;;
71771;SDS011;59606;52.138;5.424;2024-01-06T00:12:45;8.55;;;4.20;;
71771;SDS011;59606;52.138;5.424;2024-01-06T00:15:12;10.13;;;4.18;;
71771;SDS011;59606;52.138;5.424;2024-01-06T00:17:38;9.47;;;4.00;;
71771;SDS011;59606;52.138;5.424;2024-01-06T00:20:05;9.63;;;3.72;;
71771;SDS011;59606;52.138;5.424;2024-01-06T00:22:33;9.40;;;3.67;;
71771;SDS011;59606;52.138;5.424;2024-01-06T00:24:59;8.85;;;3.40;;
71771;SDS011;59606;52.138;5.424;2024-01-06T00:27:26;8.93;;;3.95;;
71771;SDS011;59606;52.138;5.424;2024-01-06T00:29:52;8.47;;;3.37;;
71771;SDS011;59606;52.138;5.424;2024-01-06T00:32:19;7.55;;;3.10;;
71771;SDS011;59606;52.138;5.424;2024-01-06T00:34:45;8.70;;;3.45;;
71771;SDS011;59606;52.138;5.424;2024-01-06T00:37:13;8.05;;;2.92;;
71771;SDS011;59606;52.138;5.424;2024-01-06T00:39:40;8.50;;;2.80;;
71771;SDS011;59606;52.138;5.424;2024-01-06T00:42:07;9.33;;;3.40;;
71771;SDS011;59606;52.138;5.424;2024-01-06T00:44:35;7.55;;;3.10;;
71771;SDS011;59606;52.138;5.424;2024-01-06T00:47:02;7.50;;;3.08;;
71771;SDS011;59606;52.138;5.424;2024-01-06T00:49:29;7.13;;;3.50;;
71771;SDS011;59606;52.138;5.424;2024-01-06T00:51:56;9.88;;;3.83;;
71771;SDS011;59606;52.138;5.424;2024-01-06T00:54:22;12.53;;;4.23;;
71771;SDS011;59606;52.138;5.424;2024-01-06T00:56:49;9.35;;;4.20;;
71771;SDS011;59606;52.138;5.424;2024-01-06T00:59:15;9.60;;;3.80;;
71771;SDS011;59606;52.138;5.424;2024-01-06T01:01:42;11.77;;;5.00;;
71771;SDS011;59606;52.138;5.424;2024-01-06T01:04:08;9.10;;;4.35;;
71771;SDS011;59606;52.138;5.424;2024-01-06T01:06:36;10.60;;;4.97;;
71771;SDS011;59606;52.138;5.424;2024-01-06T01:09:03;12.55;;;5.22;;
71771;SDS011;59606;52.138;5.424;2024-01-06T01:11:30;10.68;;;4.50;;
71771;SDS011;59606;52.138;5.424;2024-01-06T01:13:57;10.57;;;4.30;;
71771;SDS011;59606;52.138;5.424;2024-01-06T01:16:23;9.40;;;4.25;;
71771;SDS011;59606;52.138;5.424;2024-01-06T01:18:50;11.03;;;4.37;;
71771;SDS011;59606;52.138;5.424;2024-01-06T01:21:17;11.60;;;4.35;;
71771;SDS011;59606;52.138;5.424;2024-01-06T01:23:44;10.73;;;4.38;;
71771;SDS011;59606;52.138;5.424;2024-01-06T01:26:10;9.27;;;4.10;;
71771;SDS011;59606;52.138;5.424;2024-01-06T01:28:37;8.95;;;3.90;;
71771;SDS011;59606;52.138;5.424;2024-01-06T01:31:03;9.70;;;3.70;;
71771;SDS011;59606;52.138;5.424;2024-01-06T01:33:30;11.80;;;4.90;;
71771;SDS011;59606;52.138;5.424;2024-01-06T01:35:57;8.70;;;4.50;;
71771;SDS011;59606;52.138;5.424;2024-01-06T01:38:27;11.20;;;5.35;;
71771;SDS011;59606;52.138;5.424;2024-01-06T01:40:54;11.77;;;5.97;;
71771;SDS011;59606;52.138;5.424;2024-01-06T01:43:20;9.37;;;4.87;;
71771;SDS011;59606;52.138;5.424;2024-01-06T01:45:55;11.63;;;5.05;;
71771;SDS011;59606;52.138;5.424;2024-01-06T01:48:22;10.25;;;3.90;;
71771;SDS011;59606;52.138;5.424;2024-01-06T01:50:51;11.07;;;4.82;;
71771;SDS011;59606;52.138;5.424;2024-01-06T01:53:19;12.48;;;4.60;;
71771;SDS011;59606;52.138;5.424;2024-01-06T01:55:46;10.77;;;4.80;;
71771;SDS011;59606;52.138;5.424;2024-01-06T01:58:14;10.15;;;4.40;;
71771;SDS011;59606;52.138;5.424;2024-01-06T02:00:42;9.63;;;4.15;;
71771;SDS011;59606;52.138;5.424;2024-01-06T02:03:09;11.57;;;4.35;;
71771;SDS011;59606;52.138;5.424;2024-01-06T02:05:39;10.13;;;4.30;;
71771;SDS011;59606;52.138;5.424;2024-01-06T02:08:06;9.37;;;4.50;;
71771;SDS011;59606;52.138;5.424;2024-01-06T02:10:32;10.93;;;4.28;;
71771;SDS011;59606;52.138;5.424;2024-01-06T02:13:11;7.60;;;3.45;;
71771;SDS011;59606;52.138;5.424;2024-01-06T02:15:38;7.72;;;3.17;;
71771;SDS011;59606;52.138;5.424;2024-01-06T02:18:05;6.10;;;3.00;;
71771;SDS011;59606;52.138;5.424;2024-01-06T02:20:32;6.07;;;3.17;;
71771;SDS011;59606;52.138;5.424;2024-01-06T02:22:59;7.80;;;3.47;;
71771;SDS011;59606;52.138;5.424;2024-01-06T02:25:27;8.80;;;4.03;;
71771;SDS011;59606;52.138;5.424;2024-01-06T02:27:54;9.02;;;3.47;;
71771;SDS011;59606;52.138;5.424;2024-01-06T02:30:21;9.63;;;4.32;;
71771;SDS011;59606;52.138;5.424;2024-01-06T02:32:48;8.87;;;4.13;;
71771;SDS011;59606;52.138;5.424;2024-01-06T02:35:14;8.32;;;4.20;;
71771;SDS011;59606;52.138;5.424;2024-01-06T02:37:41;10.23;;;4.28;;
71771;SDS011;59606;52.138;5.424;2024-01-06T02:40:08;8.52;;;4.20;;
71771;SDS011;59606;52.138;5.424;2024-01-06T02:42:35;9.63;;;3.80;;
71771;SDS011;59606;52.138;5.424;2024-01-06T02:45:01;10.20;;;4.40;;
71771;SDS011;59606;52.138;5.424;2024-01-06T02:47:28;10.73;;;4.65;;
71771;SDS011;59606;52.138;5.424;2024-01-06T02:49:54;10.55;;;4.88;;
71771;SDS011;59606;52.138;5.424;2024-01-06T02:52:21;11.52;;;5.32;;
71771;SDS011;59606;52.138;5.424;2024-01-06T02:54:48;12.30;;;5.07;;
71771;SDS011;59606;52.138;5.424;2024-01-06T02:57:15;11.10;;;4.97;;
71771;SDS011;59606;52.138;5.424;2024-01-06T02:59:42;14.15;;;5.13;;
71771;SDS011;59606;52.138;5.424;2024-01-06T03:02:08;15.75;;;5.65;;
71771;SDS011;59606;52.138;5.424;2024-01-06T03:04:35;15.55;;;5.72;;
71771;SDS011;59606;52.138;5.424;2024-01-06T03:07:02;13.57;;;5.85;;
71771;SDS011;59606;52.138;5.424;2024-01-06T03:09:28;13.80;;;6.03;;
71771;SDS011;59606;52.138;5.424;2024-01-06T03:11:55;13.98;;;6.00;;
71771;SDS011;59606;52.138;5.424;2024-01-06T03:14:22;12.55;;;5.63;;
71771;SDS011;59606;52.138;5.424;2024-01-06T03:16:48;12.07;;;5.18;;
71771;SDS011;59606;52.138;5.424;2024-01-06T03:19:15;12.63;;;5.57;;
71771;SDS011;59606;52.138;5.424;2024-01-06T03:21:41;14.10;;;5.90;;
71771;SDS011;59606;52.138;5.424;2024-01-06T03:24:08;12.30;;;5.30;;
71771;SDS011;59606;52.138;5.424;2024-01-06T03:26:37;12.82;;;5.45;;
71771;SDS011;59606;52.138;5.424;2024-01-06T03:29:04;11.15;;;4.80;;
71771;SDS011;59606;52.138;5.424;2024-01-06T03:31:30;11.05;;;4.18;;
71771;SDS011;59606;52.138;5.424;2024-01-06T03:33:57;10.47;;;4.83;;
71771;SDS011;59606;52.138;5.424;2024-01-06T03:36:24;12.82;;;4.93;;
71771;SDS011;59606;52.138;5.424;2024-01-06T03:38:51;10.40;;;5.10;;
71771;SDS011;59606;52.138;5.424;2024-01-06T03:41:17;9.35;;;4.05;;
71771;SDS011;59606;52.138;5.424;2024-01-06T03:43:44;13.20;;;5.18;;
71771;SDS011;59606;52.138;5.424;2024-01-06T03:46:10;10.37;;;4.27;;
71771;SDS011;59606;52.138;5.424;2024-01-06T03:48:37;10.35;;;4.68;;
71771;SDS011;59606;52.138;5.424;2024-01-06T03:51:04;10.10;;;4.57;;
71771;SDS011;59606;52.138;5.424;2024-01-06T03:53:30;10.98;;;4.75;;
71771;SDS011;59606;52.138;5.424;2024-01-06T03:55:57;11.07;;;4.97;;
71771;SDS011;59606;52.138;5.424;2024-01-06T03:58:23;13.77;;;5.50;;
71771;SDS011;59606;52.138;5.424;2024-01-06T04:00:50;12.65;;;5.45;;
71771;SDS011;59606;52.138;5.424;2024-01-06T04:03:16;13.88;;;5.22;;
71771;SDS011;59606;52.138;5.424;2024-01-06T04:05:43;10.80;;;5.00;;
71771;SDS011;59606;52.138;5.424;2024-01-06T04:08:09;13.45;;;5.20;;
71771;SDS011;59606;52.138;5.424;2024-01-06T04:10:36;14.00;;;5.73;;
71771;SDS011;59606;52.138;5.424;2024-01-06T04:13:02;11.88;;;5.43;;
71771;SDS011;59606;52.138;5.424;2024-01-06T04:15:29;9.88;;;4.90;;
71771;SDS011;59606;52.138;5.424;2024-01-06T04:17:56;8.95;;;4.63;;
71771;SDS011;59606;52.138;5.424;2024-01-06T04:20:22;10.68;;;5.03;;
71771;SDS011;59606;52.138;5.424;2024-01-06T04:22:49;10.25;;;4.55;;
71771;SDS011;59606;52.138;5.424;2024-01-06T04:25:15;10.70;;;4.63;;
71771;SDS011;59606;52.138;5.424;2024-01-06T04:27:42;9.25;;;4.50;;
71771;SDS011;59606;52.138;5.424;2024-01-06T04:30:09;8.20;;;3.65;;
71771;SDS011;59606;52.138;5.424;2024-01-06T04:32:36;9.37;;;4.63;;
71771;SDS011;59606;52.138;5.424;2024-01-06T04:35:03;9.27;;;4.20;;
71771;SDS011;59606;52.138;5.424;2024-01-06T04:37:29;8.95;;;4.15;;
71771;SDS011;59606;52.138;5.424;2024-01-06T04:39:56;10.23;;;4.30;;
71771;SDS011;59606;52.138;5.424;2024-01-06T04:42:23;10.95;;;4.78;;
71771;SDS011;59606;52.138;5.424;2024-01-06T04:44:50;9.90;;;4.43;;
71771;SDS011;59606;52.138;5.424;2024-01-06T04:47:16;9.87;;;5.00;;
71771;SDS011;59606;52.138;5.424;2024-01-06T04:49:44;10.15;;;4.38;;
71771;SDS011;59606;52.138;5.424;2024-01-06T04:52:10;9.35;;;4.78;;
71771;SDS011;59606;52.138;5.424;2024-01-06T04:54:37;8.32;;;4.20;;
71771;SDS011;59606;52.138;5.424;2024-01-06T04:57:04;11.95;;;4.88;;
71771;SDS011;59606;52.138;5.424;2024-01-06T04:59:30;8.97;;;3.80;;
71771;SDS011;59606;52.138;5.424;2024-01-06T05:01:57;11.32;;;4.90;;
71771;SDS011;59606;52.138;5.424;2024-01-06T05:04:24;7.85;;;3.85;;
71771;SDS011;59606;52.138;5.424;2024-01-06T05:06:51;8.15;;;3.65;;
71771;SDS011;59606;52.138;5.424;2024-01-06T05:09:18;7.80;;;4.03;;
71771;SDS011;59606;52.138;5.424;2024-01-06T05:11:45;8.43;;;4.03;;
71771;SDS011;59606;52.138;5.424;2024-01-06T05:14:11;7.97;;;3.80;;
71771;SDS011;59606;52.138;5.424;2024-01-06T05:16:38;9.90;;;4.15;;
71771;SDS011;59606;52.138;5.424;2024-01-06T05:19:04;10.60;;;4.13;;
71771;SDS011;59606;52.138;5.424;2024-01-06T05:21:32;7.28;;;3.63;;
71771;SDS011;59606;52.138;5.424;2024-01-06T05:23:59;9.27;;;4.30;;
71771;SDS011;59606;52.138;5.424;2024-01-06T05:26:25;9.57;;;4.53;;
71771;SDS011;59606;52.138;5.424;2024-01-06T05:28:52;10.50;;;4.57;;
71771;SDS011;59606;52.138;5.424;2024-01-06T05:31:19;11.32;;;4.65;;
71771;SDS011;59606;52.138;5.424;2024-01-06T05:33:45;8.57;;;4.03;;
71771;SDS011;59606;52.138;5.424;2024-01-06T05:36:12;11.03;;;5.37;;
71771;SDS011;59606;52.138;5.424;2024-01-06T05:38:39;10.93;;;4.55;;
71771;SDS011;59606;52.138;5.424;2024-01-06T05:41:05;11.18;;;4.80;;
71771;SDS011;59606;52.138;5.424;2024-01-06T05:43:32;8.95;;;4.47;;
71771;SDS011;59606;52.138;5.424;2024-01-06T05:45:58;9.32;;;4.28;;
71771;SDS011;59606;52.138;5.424;2024-01-06T05:48:27;13.60;;;4.77;;
71771;SDS011;59606;52.138;5.424;2024-01-06T05:50:54;11.05;;;4.22;;
71771;SDS011;59606;52.138;5.424;2024-01-06T05:53:20;10.48;;;4.68;;
71771;SDS011;59606;52.138;5.424;2024-01-06T05:55:47;10.90;;;5.10;;
71771;SDS011;59606;52.138;5.424;2024-01-06T05:58:14;11.07;;;5.57;;
71771;SDS011;59606;52.138;5.424;2024-01-06T06:00:40;13.80;;;5.93;;
71771;SDS011;59606;52.138;5.424;2024-01-06T06:03:07;10.68;;;5.00;;
71771;SDS011;59606;52.138;5.424;2024-01-06T06:05:34;12.63;;;5.53;;
71771;SDS011;59606;52.138;5.424;2024-01-06T06:08:00;16.88;;;6.78;;
71771;SDS011;59606;52.138;5.424;2024-01-06T06:10:27;12.02;;;5.88;;
71771;SDS011;59606;52.138;5.424;2024-01-06T06:13:07;13.53;;;5.03;;
71771;SDS011;59606;52.138;5.424;2024-01-06T06:15:37;13.38;;;5.57;;
71771;SDS011;59606;52.138;5.424;2024-01-06T06:18:03;10.45;;;5.72;;
71771;SDS011;59606;52.138;5.424;2024-01-06T06:20:30;11.35;;;5.85;;
71771;SDS011;59606;52.138;5.424;2024-01-06T06:22:57;13.05;;;5.55;;
71771;SDS011;59606;52.138;5.424;2024-01-06T06:25:23;11.60;;;5.47;;
71771;SDS011;59606;52.138;5.424;2024-01-06T06:27:49;13.43;;;5.72;;
71771;SDS011;59606;52.138;5.424;2024-01-06T06:30:16;11.43;;;5.70;;
71771;SDS011;59606;52.138;5.424;2024-01-06T06:32:43;11.32;;;5.03;;
71771;SDS011;59606;52.138;5.424;2024-01-06T06:35:10;13.93;;;5.07;;
71771;SDS011;59606;52.138;5.424;2024-01-06T06:37:36;10.43;;;4.67;;
71771;SDS011;59606;52.138;5.424;2024-01-06T06:40:03;12.35;;;5.00;;
71771;SDS011;59606;52.138;5.424;2024-01-06T06:42:30;14.88;;;5.90;;
71771;SDS011;59606;52.138;5.424;2024-01-06T06:44:56;10.13;;;4.93;;
71771;SDS011;59606;52.138;5.424;2024-01-06T06:47:23;15.02;;;5.35;;
71771;SDS011;59606;52.138;5.424;2024-01-06T06:49:50;14.27;;;6.07;;
71771;SDS011;59606;52.138;5.424;2024-01-06T06:52:16;10.70;;;4.70;;
71771;SDS011;59606;52.138;5.424;2024-01-06T06:54:43;11.70;;;5.22;;
71771;SDS011;59606;52.138;5.424;2024-01-06T06:57:09;12.02;;;5.05;;
71771;SDS011;59606;52.138;5.424;2024-01-06T06:59:36;11.63;;;4.93;;
71771;SDS011;59606;52.138;5.424;2024-01-06T07:02:03;11.87;;;4.97;;
71771;SDS011;59606;52.138;5.424;2024-01-06T07:04:29;13.63;;;5.35;;
71771;SDS011;59606;52.138;5.424;2024-01-06T07:06:56;11.82;;;4.47;;
71771;SDS011;59606;52.138;5.424;2024-01-06T07:09:23;9.43;;;4.97;;
71771;SDS011;59606;52.138;5.424;2024-01-06T07:11:51;11.13;;;5.00;;
71771;SDS011;59606;52.138;5.424;2024-01-06T07:14:17;9.53;;;4.60;;
71771;SDS011;59606;52.138;5.424;2024-01-06T07:16:43;9.15;;;4.30;;
71771;SDS011;59606;52.138;5.424;2024-01-06T07:19:10;9.65;;;3.92;;
71771;SDS011;59606;52.138;5.424;2024-01-06T07:21:37;8.10;;;3.63;;
71771;SDS011;59606;52.138;5.424;2024-01-06T07:24:04;9.45;;;4.20;;
71771;SDS011;59606;52.138;5.424;2024-01-06T07:26:30;9.73;;;4.00;;
71771;SDS011;59606;52.138;5.424;2024-01-06T07:28:57;7.78;;;3.55;;
71771;SDS011;59606;52.138;5.424;2024-01-06T07:31:24;14.75;;;4.72;;
71771;SDS011;59606;52.138;5.424;2024-01-06T07:33:50;7.75;;;3.35;;
71771;SDS011;59606;52.138;5.424;2024-01-06T07:36:17;8.07;;;4.03;;
71771;SDS011;59606;52.138;5.424;2024-01-06T07:38:44;8.53;;;4.10;;
71771;SDS011;59606;52.138;5.424;2024-01-06T07:41:12;8.90;;;3.85;;
71771;SDS011;59606;52.138;5.424;2024-01-06T07:43:38;12.40;;;4.35;;
71771;SDS011;59606;52.138;5.424;2024-01-06T07:46:05;10.75;;;3.58;;
71771;SDS011;59606;52.138;5.424;2024-01-06T07:48:33;10.90;;;3.38;;
71771;SDS011;59606;52.138;5.424;2024-01-06T07:51:00;7.90;;;3.43;;
71771;SDS011;59606;52.138;5.424;2024-01-06T07:53:26;7.97;;;4.15;;
71771;SDS011;59606;52.138;5.424;2024-01-06T07:55:53;8.32;;;4.10;;
71771;SDS011;59606;52.138;5.424;2024-01-06T07:58:19;6.82;;;3.50;;
71771;SDS011;59606;52.138;5.424;2024-01-06T08:00:46;7.80;;;4.32;;
71771;SDS011;59606;52.138;5.424;2024-01-06T08:03:13;9.87;;;3.80;;
71771;SDS011;59606;52.138;5.424;2024-01-06T08:05:40;8.63;;;3.80;;
71771;SDS011;59606;52.138;5.424;2024-01-06T08:08:06;7.93;;;3.80;;
71771;SDS011;59606;52.138;5.424;2024-01-06T08:10:33;7.60;;;3.78;;
71771;SDS011;59606;52.138;5.424;2024-01-06T08:12:59;7.75;;;4.55;;
71771;SDS011;59606;52.138;5.424;2024-01-06T08:15:26;9.13;;;3.87;;
71771;SDS011;59606;52.138;5.424;2024-01-06T08:17:53;8.60;;;4.20;;
71771;SDS011;59606;52.138;5.424;2024-01-06T08:20:19;7.80;;;4.07;;
71771;SDS011;59606;52.138;5.424;2024-01-06T08:22:46;8.40;;;4.00;;
71771;SDS011;59606;52.138;5.424;2024-01-06T08:25:16;9.70;;;4.22;;
71771;SDS011;59606;52.138;5.424;2024-01-06T08:27:43;6.07;;;3.20;;
71771;SDS011;59606;52.138;5.424;2024-01-06T08:30:10;8.85;;;3.80;;
71771;SDS011;59606;52.138;5.424;2024-01-06T08:32:38;12.40;;;4.80;;
71771;SDS011;59606;52.138;5.424;2024-01-06T08:35:04;11.30;;;4.55;;
71771;SDS011;59606;52.138;5.424;2024-01-06T08:37:31;9.98;;;3.72;;
71771;SDS011;59606;52.138;5.424;2024-01-06T08:39:58;9.30;;;3.70;;
71771;SDS011;59606;52.138;5.424;2024-01-06T08:42:25;8.85;;;3.95;;
71771;SDS011;59606;52.138;5.424;2024-01-06T08:44:52;9.57;;;4.05;;
71771;SDS011;59606;52.138;5.424;2024-01-06T08:47:19;9.70;;;3.78;;
71771;SDS011;59606;52.138;5.424;2024-01-06T08:49:45;10.15;;;4.15;;
71771;SDS011;59606;52.138;5.424;2024-01-06T08:52:12;11.10;;;4.33;;
71771;SDS011;59606;52.138;5.424;2024-01-06T08:54:38;8.10;;;3.95;;
71771;SDS011;59606;52.138;5.424;2024-01-06T08:57:05;9.07;;;4.32;;
71771;SDS011;59606;52.138;5.424;2024-01-06T08:59:32;10.38;;;4.55;;
71771;SDS011;59606;52.138;5.424;2024-01-06T09:01:59;8.57;;;3.88;;
71771;SDS011;59606;52.138;5.424;2024-01-06T09:04:25;12.33;;;4.30;;
71771;SDS011;59606;52.138;5.424;2024-01-06T09:06:52;12.18;;;4.20;;
71771;SDS011;59606;52.138;5.424;2024-01-06T09:09:19;9.70;;;4.35;;
71771;SDS011;59606;52.138;5.424;2024-01-06T09:11:45;10.50;;;4.50;;
71771;SDS011;59606;52.138;5.424;2024-01-06T09:14:12;11.63;;;4.80;;
71771;SDS011;59606;52.138;5.424;2024-01-06T09:16:39;9.53;;;4.30;;
71771;SDS011;59606;52.138;5.424;2024-01-06T09:19:05;13.27;;;5.13;;
71771;SDS011;59606;52.138;5.424;2024-01-06T09:21:32;11.20;;;4.53;;
71771;SDS011;59606;52.138;5.424;2024-01-06T09:23:59;10.20;;;3.97;;
71771;SDS011;59606;52.138;5.424;2024-01-06T09:26:26;10.20;;;4.07;;
71771;SDS011;59606;52.138;5.424;2024-01-06T09:28:53;9.23;;;4.03;;
71771;SDS011;59606;52.138;5.424;2024-01-06T09:31:20;10.23;;;4.45;;
71771;SDS011;59606;52.138;5.424;2024-01-06T09:33:46;8.57;;;4.05;;
71771;SDS011;59606;52.138;5.424;2024-01-06T09:36:13;10.32;;;3.90;;
71771;SDS011;59606;52.138;5.424;2024-01-06T09:38:40;6.43;;;3.40;;
71771;SDS011;59606;52.138;5.424;2024-01-06T09:41:07;10.40;;;4.17;;
71771;SDS011;59606;52.138;5.424;2024-01-06T09:43:33;8.90;;;3.88;;
71771;SDS011;59606;52.138;5.424;2024-01-06T09:46:10;8.90;;;3.72;;
71771;SDS011;59606;52.138;5.424;2024-01-06T09:48:40;8.05;;;3.95;;
71771;SDS011;59606;52.138;5.424;2024-01-06T09:51:11;10.18;;;3.97;;
71771;SDS011;59606;52.138;5.424;2024-01-06T09:53:43;11.40;;;3.77;;
71771;SDS011;59606;52.138;5.424;2024-01-06T09:56:15;7.88;;;4.00;;
71771;SDS011;59606;52.138;5.424;2024-01-06T09:58:42;9.45;;;4.38;;
71771;SDS011;59606;52.138;5.424;2024-01-06T10:01:11;7.85;;;3.67;;
71771;SDS011;59606;52.138;5.424;2024-01-06T10:03:38;7.10;;;3.42;;
71771;SDS011;59606;52.138;5.424;2024-01-06T10:06:05;8.00;;;3.87;;
71771;SDS011;59606;52.138;5.424;2024-01-06T10:08:31;8.95;;;3.75;;
71771;SDS011;59606;52.138;5.424;2024-01-06T10:11:01;10.13;;;4.25;;
71771;SDS011;59606;52.138;5.424;2024-01-06T10:13:28;9.13;;;3.97;;
71771;SDS011;59606;52.138;5.424;2024-01-06T10:15:54;8.43;;;3.60;;
71771;SDS011;59606;52.138;5.424;2024-01-06T10:18:21;9.17;;;4.27;;
71771;SDS011;59606;52.138;5.424;2024-01-06T10:20:48;8.82;;;4.53;;
71771;SDS011;59606;52.138;5.424;2024-01-06T10:23:16;10.05;;;4.25;;
71771;SDS011;59606;52.138;5.424;2024-01-06T10:25:42;7.07;;;3.70;;
71771;SDS011;59606;52.138;5.424;2024-01-06T10:28:12;7.05;;;4.20;;
71771;SDS011;59606;52.138;5.424;2024-01-06T10:30:40;7.97;;;4.07;;
71771;SDS011;59606;52.138;5.424;2024-01-06T10:33:09;9.90;;;4.20;;
71771;SDS011;59606;52.138;5.424;2024-01-06T10:35:40;7.35;;;3.60;;
71771;SDS011;59606;52.138;5.424;2024-01-06T10:38:07;7.55;;;4.20;;
71771;SDS011;59606;52.138;5.424;2024-01-06T10:40:33;8.93;;;4.13;;
71771;SDS011;59606;52.138;5.424;2024-01-06T10:43:00;9.37;;;3.80;;
71771;SDS011;59606;52.138;5.424;2024-01-06T10:45:28;7.15;;;4.00;;
71771;SDS011;59606;52.138;5.424;2024-01-06T10:47:55;6.90;;;3.58;;
71771;SDS011;59606;52.138;5.424;2024-01-06T10:50:22;8.10;;;4.35;;
71771;SDS011;59606;52.138;5.424;2024-01-06T10:52:49;8.57;;;4.47;;
71771;SDS011;59606;52.138;5.424;2024-01-06T10:55:18;7.53;;;3.70;;
71771;SDS011;59606;52.138;5.424;2024-01-06T10:57:46;10.18;;;4.38;;
71771;SDS011;59606;52.138;5.424;2024-01-06T11:00:15;11.35;;;4.18;;
71771;SDS011;59606;52.138;5.424;2024-01-06T11:02:42;7.82;;;3.53;;
71771;SDS011;59606;52.138;5.424;2024-01-06T11:05:09;9.07;;;4.38;;
71771;SDS011;59606;52.138;5.424;2024-01-06T11:07:36;7.10;;;3.73;;
71771;SDS011;59606;52.138;5.424;2024-01-06T11:10:08;7.18;;;4.00;;
71771;SDS011;59606;52.138;5.424;2024-01-06T11:12:44;8.90;;;3.97;;
71771;SDS011;59606;52.138;5.424;2024-01-06T11:15:38;7.15;;;3.70;;
71771;SDS011;59606;52.138;5.424;2024-01-06T11:18:07;7.32;;;3.30;;
71771;SDS011;59606;52.138;5.424;2024-01-06T11:20:34;11.07;;;4.23;;
71771;SDS011;59606;52.138;5.424;2024-01-06T11:23:19;7.53;;;4.05;;
71771;SDS011;59606;52.138;5.424;2024-01-06T11:25:49;7.80;;;3.70;;
71771;SDS011;59606;52.138;5.424;2024-01-06T11:28:16;6.95;;;3.47;;
71771;SDS011;59606;52.138;5.424;2024-01-06T11:30:43;9.82;;;3.88;;
71771;SDS011;59606;52.138;5.424;2024-01-06T11:33:10;8.67;;;3.53;;
71771;SDS011;59606;52.138;5.424;2024-01-06T11:35:37;7.07;;;3.22;;
71771;SDS011;59606;52.138;5.424;2024-01-06T11:38:06;6.65;;;3.25;;
71771;SDS011;59606;52.138;5.424;2024-01-06T11:40:34;6.13;;;3.15;;
71771;SDS011;59606;52.138;5.424;2024-01-06T11:43:09;7.65;;;3.17;;
71771;SDS011;59606;52.138;5.424;2024-01-06T11:45:37;6.20;;;3.10;;
71771;SDS011;59606;52.138;5.424;2024-01-06T11:48:07;6.72;;;3.00;;
71771;SDS011;59606;52.138;5.424;2024-01-06T11:50:35;7.20;;;3.17;;
71771;SDS011;59606;52.138;5.424;2024-01-06T11:53:03;7.80;;;3.72;;
71771;SDS011;59606;52.138;5.424;2024-01-06T11:55:31;8.98;;;3.67;;
71771;SDS011;59606;52.138;5.424;2024-01-06T11:57:59;8.13;;;3.93;;
71771;SDS011;59606;52.138;5.424;2024-01-06T12:00:30;9.98;;;3.80;;
71771;SDS011;59606;52.138;5.424;2024-01-06T12:03:00;8.02;;;3.90;;
71771;SDS011;59606;52.138;5.424;2024-01-06T12:05:28;8.32;;;3.80;;
71771;SDS011;59606;52.138;5.424;2024-01-06T12:07:58;11.18;;;4.28;;
71771;SDS011;59606;52.138;5.424;2024-01-06T12:10:27;8.70;;;3.53;;
71771;SDS011;59606;52.138;5.424;2024-01-06T12:12:58;7.47;;;4.28;;
71771;SDS011;59606;52.138;5.424;2024-01-06T12:15:26;9.02;;;4.07;;
71771;SDS011;59606;52.138;5.424;2024-01-06T12:17:54;6.10;;;3.22;;
71771;SDS011;59606;52.138;5.424;2024-01-06T12:20:21;7.57;;;3.83;;
71771;SDS011;59606;52.138;5.424;2024-01-06T12:22:52;10.13;;;3.80;;
71771;SDS011;59606;52.138;5.424;2024-01-06T12:25:20;8.77;;;3.92;;
71771;SDS011;59606;52.138;5.424;2024-01-06T12:27:51;8.23;;;4.28;;
71771;SDS011;59606;52.138;5.424;2024-01-06T12:30:22;8.75;;;4.75;;
71771;SDS011;59606;52.138;5.424;2024-01-06T12:32:50;9.77;;;4.78;;
71771;SDS011;59606;52.138;5.424;2024-01-06T12:35:19;9.07;;;4.57;;
71771;SDS011;59606;52.138;5.424;2024-01-06T12:37:47;8.77;;;4.32;;
71771;SDS011;59606;52.138;5.424;2024-01-06T12:40:15;8.65;;;4.10;;
71771;SDS011;59606;52.138;5.424;2024-01-06T12:42:43;12.23;;;4.47;;
71771;SDS011;59606;52.138;5.424;2024-01-06T12:45:11;7.93;;;3.97;;
71771;SDS011;59606;52.138;5.424;2024-01-06T12:47:39;11.70;;;5.20;;
71771;SDS011;59606;52.138;5.424;2024-01-06T12:50:06;9.98;;;4.50;;
71771;SDS011;59606;52.138;5.424;2024-01-06T12:52:34;8.77;;;4.10;;
71771;SDS011;59606;52.138;5.424;2024-01-06T12:55:01;9.07;;;4.50;;
71771;SDS011;59606;52.138;5.424;2024-01-06T12:57:29;7.65;;;4.38;;
71771;SDS011;59606;52.138;5.424;2024-01-06T12:59:56;9.23;;;4.23;;
71771;SDS011;59606;52.138;5.424;2024-01-06T13:02:23;7.65;;;4.03;;
71771;SDS011;59606;52.138;5.424;2024-01-06T13:04:50;9.02;;;4.72;;
71771;SDS011;59606;52.138;5.424;2024-01-06T13:07:16;7.80;;;4.63;;
71771;SDS011;59606;52.138;5.424;2024-01-06T13:09:43;14.35;;;5.55;;
71771;SDS011;59606;52.138;5.424;2024-01-06T13:12:10;12.23;;;5.03;;
71771;SDS011;59606;52.138;5.424;2024-01-06T13:14:37;11.50;;;5.93;;
71771;SDS011;59606;52.138;5.424;2024-01-06T13:17:04;9.57;;;4.93;;
71771;SDS011;59606;52.138;5.424;2024-01-06T13:19:31;11.73;;;5.03;;
71771;SDS011;59606;52.138;5.424;2024-01-06T13:21:58;10.35;;;4.88;;
71771;SDS011;59606;52.138;5.424;2024-01-06T13:24:25;11.20;;;5.47;;
71771;SDS011;59606;52.138;5.424;2024-01-06T13:26:51;9.60;;;4.90;;
71771;SDS011;59606;52.138;5.424;2024-01-06T13:29:18;10.38;;;4.63;;
71771;SDS011;59606;52.138;5.424;2024-01-06T13:31:45;9.52;;;5.03;;
71771;SDS011;59606;52.138;5.424;2024-01-06T13:34:12;9.18;;;5.10;;
71771;SDS011;59606;52.138;5.424;2024-01-06T13:36:39;11.67;;;4.73;;
71771;SDS011;59606;52.138;5.424;2024-01-06T13:39:05;11.70;;;4.95;;
71771;SDS011;59606;52.138;5.424;2024-01-06T13:41:33;10.98;;;4.90;;
71771;SDS011;59606;52.138;5.424;2024-01-06T13:43:59;11.23;;;5.30;;
71771;SDS011;59606;52.138;5.424;2024-01-06T13:46:26;11.32;;;5.45;;
71771;SDS011;59606;52.138;5.424;2024-01-06T13:48:53;11.10;;;5.13;;
71771;SDS011;59606;52.138;5.424;2024-01-06T13:51:20;9.10;;;4.70;;
71771;SDS011;59606;52.138;5.424;2024-01-06T13:53:46;11.20;;;5.20;;
71771;SDS011;59606;52.138;5.424;2024-01-06T13:56:13;14.80;;;5.57;;
71771;SDS011;59606;52.138;5.424;2024-01-06T13:58:40;11.95;;;5.25;;
71771;SDS011;59606;52.138;5.424;2024-01-06T14:01:06;13.03;;;5.40;;
71771;SDS011;59606;52.138;5.424;2024-01-06T14:03:36;11.70;;;5.40;;
71771;SDS011;59606;52.138;5.424;2024-01-06T14:06:03;13.38;;;5.30;;
71771;SDS011;59606;52.138;5.424;2024-01-06T14:08:30;11.88;;;5.28;;
71771;SDS011;59606;52.138;5.424;2024-01-06T14:10:57;12.25;;;5.63;;
71771;SDS011;59606;52.138;5.424;2024-01-06T14:13:23;10.50;;;4.87;;
71771;SDS011;59606;52.138;5.424;2024-01-06T14:15:50;12.45;;;5.45;;
71771;SDS011;59606;52.138;5.424;2024-01-06T14:18:16;12.88;;;5.53;;
71771;SDS011;59606;52.138;5.424;2024-01-06T14:20:43;16.75;;;5.78;;
71771;SDS011;59606;52.138;5.424;2024-01-06T14:23:10;9.93;;;5.22;;
71771;SDS011;59606;52.138;5.424;2024-01-06T14:25:37;11.63;;;4.67;;
71771;SDS011;59606;52.138;5.424;2024-01-06T14:28:03;16.10;;;4.90;;
71771;SDS011;59606;52.138;5.424;2024-01-06T14:30:32;7.65;;;4.32;;
71771;SDS011;59606;52.138;5.424;2024-01-06T14:32:59;5.72;;;3.55;;
71771;SDS011;59606;52.138;5.424;2024-01-06T14:35:26;10.65;;;4.22;;
71771;SDS011;59606;52.138;5.424;2024-01-06T14:37:52;9.00;;;4.07;;
71771;SDS011;59606;52.138;5.424;2024-01-06T14:40:20;9.05;;;3.85;;